sensor_id;sensor_type;location;lat;lon;timestamp;pressure;altitude;pressure_sealevel;temperature;humidity
9439;BME280;5176;42.622;25.386;2023-06-14T00:00:31;96925.13;;;21.06;100.00
9439;BME280;5176;42.622;25.386;2023-06-14T00:03:00;96922.19;;;21.01;100.00
9439;BME280;5176;42.622;25.386;2023-06-14T00:05:29;96926.00;;;20.99;100.00
9439;BME280;5176;42.622;25.386;2023-06-14T00:07:59;96924.66;;;21.03;100.00
9439;BME280;5176;42.622;25.386;2023-06-14T00:10:27;96916.03;;;21.01;100.00
9439;BME280;5176;42.622;25.386;2023-06-14T00:12:56;96913.69;;;20.98;100.00
9439;BME280;5176;42.622;25.386;2023-06-14T00:15:25;96915.50;;;20.97;100.00
9439;BME280;5176;42.622;25.386;2023-06-14T00:17:52;96910.03;;;20.90;100.00
9439;BME280;5176;42.622;25.386;2023-06-14T00:20:20;96914.34;;;20.91;100.00
9439;BME280;5176;42.622;25.386;2023-06-14T00:22:49;96919.53;;;20.85;100.00
9439;BME280;5176;42.622;25.386;2023-06-14T00:25:17;96923.88;;;20.78;100.00
9439;BME280;5176;42.622;25.386;2023-06-14T00:27:45;96916.88;;;20.77;100.00
9439;BME280;5176;42.622;25.386;2023-06-14T00:30:13;96912.22;;;20.71;100.00
9439;BME280;5176;42.622;25.386;2023-06-14T00:32:40;96914.06;;;20.70;100.00
9439;BME280;5176;42.622;25.386;2023-06-14T00:35:08;96911.75;;;20.67;100.00
9439;BME280;5176;42.622;25.386;2023-06-14T00:37:35;96903.78;;;20.67;100.00
9439;BME280;5176;42.622;25.386;2023-06-14T00:40:05;96907.59;;;20.64;100.00
9439;BME280;5176;42.622;25.386;2023-06-14T00:42:33;96903.63;;;20.60;100.00
9439;BME280;5176;42.622;25.386;2023-06-14T00:45:00;96908.25;;;20.58;100.00
9439;BME280;5176;42.622;25.386;2023-06-14T00:47:28;96896.78;;;20.58;100.00
9439;BME280;5176;42.622;25.386;2023-06-14T00:49:55;96896.97;;;20.48;100.00
9439;BME280;5176;42.622;25.386;2023-06-14T00:52:23;96896.28;;;20.46;100.00
9439;BME280;5176;42.622;25.386;2023-06-14T00:54:51;96896.59;;;20.43;100.00
9439;BME280;5176;42.622;25.386;2023-06-14T00:57:19;96896.47;;;20.45;100.00
9439;BME280;5176;42.622;25.386;2023-06-14T00:59:49;96897.91;;;20.39;100.00
9439;BME280;5176;42.622;25.386;2023-06-14T01:02:17;96895.97;;;20.33;100.00
9439;BME280;5176;42.622;25.386;2023-06-14T01:04:47;96889.59;;;20.26;100.00
9439;BME280;5176;42.622;25.386;2023-06-14T01:07:25;96877.31;;;20.17;100.00
9439;BME280;5176;42.622;25.386;2023-06-14T01:10:06;96867.50;;;20.09;100.00
9439;BME280;5176;42.622;25.386;2023-06-14T01:12:43;96893.44;;;20.23;100.00
9439;BME280;5176;42.622;25.386;2023-06-14T01:15:13;96889.94;;;20.23;100.00
9439;BME280;5176;42.622;25.386;2023-06-14T01:17:41;96890.97;;;20.13;100.00
9439;BME280;5176;42.622;25.386;2023-06-14T01:20:12;96891.09;;;20.04;100.00
9439;BME280;5176;42.622;25.386;2023-06-14T01:22:50;96886.97;;;20.01;100.00
9439;BME280;5176;42.622;25.386;2023-06-14T01:25:17;96882.94;;;19.97;100.00
9439;BME280;5176;42.622;25.386;2023-06-14T01:27:48;96883.28;;;19.94;100.00
9439;BME280;5176;42.622;25.386;2023-06-14T01:30:17;96885.13;;;19.94;100.00
9439;BME280;5176;42.622;25.386;2023-06-14T01:32:45;96884.63;;;19.98;100.00
9439;BME280;5176;42.622;25.386;2023-06-14T01:35:13;96888.09;;;19.99;100.00
9439;BME280;5176;42.622;25.386;2023-06-14T01:37:42;96883.94;;;19.96;100.00
9439;BME280;5176;42.622;25.386;2023-06-14T01:40:12;96889.28;;;19.96;100.00
9439;BME280;5176;42.622;25.386;2023-06-14T01:42:40;96883.28;;;19.94;100.00
9439;BME280;5176;42.622;25.386;2023-06-14T01:45:09;96889.09;;;19.98;100.00
9439;BME280;5176;42.622;25.386;2023-06-14T01:47:37;96888.94;;;19.99;100.00
9439;BME280;5176;42.622;25.386;2023-06-14T01:50:05;96886.44;;;20.06;100.00
9439;BME280;5176;42.622;25.386;2023-06-14T01:52:32;96886.44;;;20.06;100.00
9439;BME280;5176;42.622;25.386;2023-06-14T01:54:59;96881.94;;;19.98;100.00
9439;BME280;5176;42.622;25.386;2023-06-14T01:57:29;96855.34;;;19.82;100.00
9439;BME280;5176;42.622;25.386;2023-06-14T01:59:56;96879.97;;;20.00;100.00
9439;BME280;5176;42.622;25.386;2023-06-14T02:02:23;96886.28;;;19.99;100.00
9439;BME280;5176;42.622;25.386;2023-06-14T02:04:51;96888.63;;;20.02;100.00
9439;BME280;5176;42.622;25.386;2023-06-14T02:07:18;96891.09;;;20.04;100.00
9439;BME280;5176;42.622;25.386;2023-06-14T02:09:45;96884.47;;;20.08;100.00
9439;BME280;5176;42.622;25.386;2023-06-14T02:12:12;96889.97;;;20.06;100.00
9439;BME280;5176;42.622;25.386;2023-06-14T02:14:40;96885.78;;;20.04;100.00
9439;BME280;5176;42.622;25.386;2023-06-14T02:17:08;96881.63;;;20.01;100.00
9439;BME280;5176;42.622;25.386;2023-06-14T02:19:35;96884.47;;;20.00;100.00
9439;BME280;5176;42.622;25.386;2023-06-14T02:22:02;96883.47;;;20.01;100.00
9439;BME280;5176;42.622;25.386;2023-06-14T02:24:30;96884.94;;;20.03;100.00
9439;BME280;5176;42.622;25.386;2023-06-14T02:26:57;96880.63;;;20.02;100.00
9439;BME280;5176;42.622;25.386;2023-06-14T02:29:24;96880.63;;;20.02;100.00
9439;BME280;5176;42.622;25.386;2023-06-14T02:31:52;96880.13;;;19.99;100.00
9439;BME280;5176;42.622;25.386;2023-06-14T02:34:20;96879.28;;;19.90;100.00
9439;BME280;5176;42.622;25.386;2023-06-14T02:36:47;96877.28;;;19.84;100.00
9439;BME280;5176;42.622;25.386;2023-06-14T02:39:15;96884.78;;;19.80;100.00
9439;BME280;5176;42.622;25.386;2023-06-14T02:41:43;96881.94;;;19.82;100.00
9439;BME280;5176;42.622;25.386;2023-06-14T02:44:10;96889.44;;;19.86;100.00
9439;BME280;5176;42.622;25.386;2023-06-14T02:46:38;96894.41;;;19.90;100.00
9439;BME280;5176;42.622;25.386;2023-06-14T02:49:07;96901.09;;;19.94;100.00
9439;BME280;5176;42.622;25.386;2023-06-14T02:51:34;96899.91;;;19.96;100.00
9439;BME280;5176;42.622;25.386;2023-06-14T02:54:01;96894.59;;;19.96;100.00
9439;BME280;5176;42.622;25.386;2023-06-14T02:56:29;96901.22;;;19.92;100.00
9439;BME280;5176;42.622;25.386;2023-06-14T02:58:56;96896.41;;;19.88;100.00
9439;BME280;5176;42.622;25.386;2023-06-14T03:01:25;96892.09;;;19.86;100.00
9439;BME280;5176;42.622;25.386;2023-06-14T03:03:59;96894.41;;;19.90;100.00
9439;BME280;5176;42.622;25.386;2023-06-14T03:06:28;96894.25;;;19.91;100.00
9439;BME280;5176;42.622;25.386;2023-06-14T03:08:56;96900.09;;;19.95;100.00
9439;BME280;5176;42.622;25.386;2023-06-14T03:11:26;96900.09;;;19.95;100.00
9439;BME280;5176;42.622;25.386;2023-06-14T03:13:53;96895.91;;;19.92;100.00
9439;BME280;5176;42.622;25.386;2023-06-14T03:16:20;96904.06;;;19.99;100.00
9439;BME280;5176;42.622;25.386;2023-06-14T03:18:49;96905.75;;;20.00;100.00
9439;BME280;5176;42.622;25.386;2023-06-14T03:21:17;96909.91;;;20.02;100.00
9439;BME280;5176;42.622;25.386;2023-06-14T03:23:47;96910.38;;;20.06;100.00
9439;BME280;5176;42.622;25.386;2023-06-14T03:26:14;96912.72;;;20.09;100.00
9439;BME280;5176;42.622;25.386;2023-06-14T03:28:43;96913.06;;;20.14;100.00
9439;BME280;5176;42.622;25.386;2023-06-14T03:31:11;96911.91;;;20.17;100.00
9439;BME280;5176;42.622;25.386;2023-06-14T03:33:38;96910.91;;;20.18;100.00
9439;BME280;5176;42.622;25.386;2023-06-14T03:36:05;96914.56;;;20.17;100.00
9439;BME280;5176;42.622;25.386;2023-06-14T03:38:34;96918.88;;;20.18;100.00
9439;BME280;5176;42.622;25.386;2023-06-14T03:41:02;96919.56;;;20.20;100.00
9439;BME280;5176;42.622;25.386;2023-06-14T03:43:29;96904.75;;;20.17;100.00
9439;BME280;5176;42.622;25.386;2023-06-14T03:45:57;96910.41;;;20.22;100.00
9439;BME280;5176;42.622;25.386;2023-06-14T03:48:24;96914.06;;;20.21;100.00
9439;BME280;5176;42.622;25.386;2023-06-14T03:50:51;96904.56;;;20.19;100.00
9439;BME280;5176;42.622;25.386;2023-06-14T03:53:20;96913.06;;;20.22;100.00
9439;BME280;5176;42.622;25.386;2023-06-14T03:55:49;96910.75;;;20.27;100.00
9439;BME280;5176;42.622;25.386;2023-06-14T03:58:19;96916.25;;;20.34;100.00
9439;BME280;5176;42.622;25.386;2023-06-14T04:00:47;96910.75;;;20.35;100.00
9439;BME280;5176;42.622;25.386;2023-06-14T04:03:14;96914.06;;;20.37;100.00
9439;BME280;5176;42.622;25.386;2023-06-14T04:05:42;96916.22;;;20.42;100.00
9439;BME280;5176;42.622;25.386;2023-06-14T04:08:10;96924.03;;;20.44;100.00
9439;BME280;5176;42.622;25.386;2023-06-14T04:10:40;96929.38;;;20.44;100.00
9439;BME280;5176;42.622;25.386;2023-06-14T04:13:07;96925.22;;;20.41;100.00
9439;BME280;5176;42.622;25.386;2023-06-14T04:15:39;96928.56;;;20.35;100.00
9439;BME280;5176;42.622;25.386;2023-06-14T04:18:09;96935.03;;;20.32;100.00
9439;BME280;5176;42.622;25.386;2023-06-14T04:20:36;96939.38;;;20.33;100.00
9439;BME280;5176;42.622;25.386;2023-06-14T04:23:14;96935.88;;;20.33;100.00
9439;BME280;5176;42.622;25.386;2023-06-14T04:25:43;96937.03;;;20.30;100.00
9439;BME280;5176;42.622;25.386;2023-06-14T04:28:13;96938.38;;;20.26;100.00
9439;BME280;5176;42.622;25.386;2023-06-14T04:30:42;96934.38;;;20.30;100.00
9439;BME280;5176;42.622;25.386;2023-06-14T04:33:10;96929.03;;;20.38;100.00
9439;BME280;5176;42.622;25.386;2023-06-14T04:35:37;96935.69;;;20.42;100.00
9439;BME280;5176;42.622;25.386;2023-06-14T04:38:06;96942.69;;;20.44;100.00
9439;BME280;5176;42.622;25.386;2023-06-14T04:40:35;96943.22;;;20.47;100.00
9439;BME280;5176;42.622;25.386;2023-06-14T04:43:08;96946.88;;;20.46;100.00
9439;BME280;5176;42.622;25.386;2023-06-14T04:45:38;96953.81;;;20.39;100.00
9439;BME280;5176;42.622;25.386;2023-06-14T04:48:07;96948.00;;;20.44;100.00
9439;BME280;5176;42.622;25.386;2023-06-14T04:50:34;96953.03;;;20.47;100.00
9439;BME280;5176;42.622;25.386;2023-06-14T04:53:02;96950.69;;;20.52;100.00
9439;BME280;5176;42.622;25.386;2023-06-14T04:55:29;96951.88;;;20.57;100.00
9439;BME280;5176;42.622;25.386;2023-06-14T04:57:56;96957.34;;;20.64;100.00
9439;BME280;5176;42.622;25.386;2023-06-14T05:00:24;96960.66;;;20.66;100.00
9439;BME280;5176;42.622;25.386;2023-06-14T05:02:51;96961.00;;;20.71;100.00
9439;BME280;5176;42.622;25.386;2023-06-14T05:05:20;96939.53;;;20.64;100.00
9439;BME280;5176;42.622;25.386;2023-06-14T05:07:47;96972.34;;;20.81;100.00
9439;BME280;5176;42.622;25.386;2023-06-14T05:10:14;96973.81;;;20.84;100.00
9439;BME280;5176;42.622;25.386;2023-06-14T05:12:41;96974.16;;;20.89;100.00
9439;BME280;5176;42.622;25.386;2023-06-14T05:15:10;96982.97;;;20.89;100.00
9439;BME280;5176;42.622;25.386;2023-06-14T05:17:37;96984.44;;;20.92;100.00
9439;BME280;5176;42.622;25.386;2023-06-14T05:20:07;96994.97;;;20.93;100.00
9439;BME280;5176;42.622;25.386;2023-06-14T05:22:37;96989.28;;;20.97;100.00
9439;BME280;5176;42.622;25.386;2023-06-14T05:25:05;96993.44;;;20.99;100.00
9439;BME280;5176;42.622;25.386;2023-06-14T05:27:32;96991.28;;;21.03;100.00
9439;BME280;5176;42.622;25.386;2023-06-14T05:30:01;96995.13;;;21.00;100.00
9439;BME280;5176;42.622;25.386;2023-06-14T05:32:29;96997.78;;;21.00;100.00
9439;BME280;5176;42.622;25.386;2023-06-14T05:34:57;96991.09;;;21.04;100.00
9439;BME280;5176;42.622;25.386;2023-06-14T05:37:24;96997.59;;;21.10;100.00
9439;BME280;5176;42.622;25.386;2023-06-14T05:39:52;96995.25;;;21.15;100.00
9439;BME280;5176;42.622;25.386;2023-06-14T05:42:20;96993.91;;;21.11;100.00
9439;BME280;5176;42.622;25.386;2023-06-14T05:44:47;96994.44;;;21.14;100.00
9439;BME280;5176;42.622;25.386;2023-06-14T05:47:14;96999.09;;;21.20;100.00
9439;BME280;5176;42.622;25.386;2023-06-14T05:49:42;96998.56;;;21.25;96.90
9439;BME280;5176;42.622;25.386;2023-06-14T05:52:09;97002.22;;;21.32;97.12
9439;BME280;5176;42.622;25.386;2023-06-14T05:54:38;97005.41;;;21.36;96.78
9439;BME280;5176;42.622;25.386;2023-06-14T05:57:08;97011.22;;;21.39;96.47
9439;BME280;5176;42.622;25.386;2023-06-14T05:59:36;97016.03;;;21.44;95.39
9439;BME280;5176;42.622;25.386;2023-06-14T06:02:03;97014.69;;;21.48;91.04
9439;BME280;5176;42.622;25.386;2023-06-14T06:04:31;97023.00;;;21.53;88.67
9439;BME280;5176;42.622;25.386;2023-06-14T06:06:58;97020.00;;;21.56;88.31
9439;BME280;5176;42.622;25.386;2023-06-14T06:09:26;97021.34;;;21.60;86.39
9439;BME280;5176;42.622;25.386;2023-06-14T06:11:53;97022.00;;;21.62;85.09
9439;BME280;5176;42.622;25.386;2023-06-14T06:14:22;97019.78;;;21.66;85.77
9439;BME280;5176;42.622;25.386;2023-06-14T06:16:50;97018.28;;;21.71;85.78
9439;BME280;5176;42.622;25.386;2023-06-14T06:19:18;97028.25;;;21.77;85.79
9439;BME280;5176;42.622;25.386;2023-06-14T06:21:45;97027.09;;;21.80;85.92
9439;BME280;5176;42.622;25.386;2023-06-14T06:24:13;97028.41;;;21.84;86.33
9439;BME280;5176;42.622;25.386;2023-06-14T06:26:40;97018.22;;;21.88;86.02
9439;BME280;5176;42.622;25.386;2023-06-14T06:29:08;97031.53;;;21.96;86.98
9439;BME280;5176;42.622;25.386;2023-06-14T06:31:37;97028.50;;;21.99;84.67
9439;BME280;5176;42.622;25.386;2023-06-14T06:34:04;97025.53;;;21.94;80.72
9439;BME280;5176;42.622;25.386;2023-06-14T06:36:31;97029.84;;;21.95;80.06
9439;BME280;5176;42.622;25.386;2023-06-14T06:38:59;97039.72;;;21.94;75.52
9439;BME280;5176;42.622;25.386;2023-06-14T06:41:26;97035.47;;;22.00;76.76
9439;BME280;5176;42.622;25.386;2023-06-14T06:43:53;97038.66;;;22.03;73.87
9439;BME280;5176;42.622;25.386;2023-06-14T06:46:21;97038.63;;;22.12;71.88
9439;BME280;5176;42.622;25.386;2023-06-14T06:48:49;97036.09;;;22.18;70.43
9439;BME280;5176;42.622;25.386;2023-06-14T06:51:16;97038.06;;;22.24;71.61
9439;BME280;5176;42.622;25.386;2023-06-14T06:53:52;97029.94;;;22.18;72.99
9439;BME280;5176;42.622;25.386;2023-06-14T06:56:20;97040.09;;;22.22;74.85
9439;BME280;5176;42.622;25.386;2023-06-14T06:58:48;97019.94;;;22.12;77.23
9439;BME280;5176;42.622;25.386;2023-06-14T07:01:16;97039.34;;;22.37;79.01
9439;BME280;5176;42.622;25.386;2023-06-14T07:03:43;97041.63;;;22.40;78.92
9439;BME280;5176;42.622;25.386;2023-06-14T07:06:12;97040.81;;;22.39;76.97
9439;BME280;5176;42.622;25.386;2023-06-14T07:08:40;97046.00;;;22.41;76.80
9439;BME280;5176;42.622;25.386;2023-06-14T07:11:07;97046.63;;;22.43;73.71
9439;BME280;5176;42.622;25.386;2023-06-14T07:13:34;97050.78;;;22.45;75.49
9439;BME280;5176;42.622;25.386;2023-06-14T07:16:03;97052.56;;;22.53;74.76
9439;BME280;5176;42.622;25.386;2023-06-14T07:18:31;97047.19;;;22.61;76.45
9439;BME280;5176;42.622;25.386;2023-06-14T07:20:58;97045.47;;;22.68;78.02
9439;BME280;5176;42.622;25.386;2023-06-14T07:23:27;97052.09;;;22.72;77.63
9439;BME280;5176;42.622;25.386;2023-06-14T07:25:54;97050.94;;;22.75;77.94
9439;BME280;5176;42.622;25.386;2023-06-14T07:28:21;97041.91;;;22.76;76.40
9439;BME280;5176;42.622;25.386;2023-06-14T07:30:49;97039.69;;;22.79;75.91
9439;BME280;5176;42.622;25.386;2023-06-14T07:33:16;97036.84;;;22.81;79.46
9439;BME280;5176;42.622;25.386;2023-06-14T07:35:43;97049.66;;;22.85;77.60
9439;BME280;5176;42.622;25.386;2023-06-14T07:38:11;97042.16;;;22.89;78.48
9439;BME280;5176;42.622;25.386;2023-06-14T07:40:40;97042.63;;;22.93;78.46
9439;BME280;5176;42.622;25.386;2023-06-14T07:43:07;97048.34;;;22.90;75.78
9439;BME280;5176;42.622;25.386;2023-06-14T07:45:35;97049.66;;;22.85;75.83
9439;BME280;5176;42.622;25.386;2023-06-14T07:48:03;97040.88;;;22.77;77.67
9439;BME280;5176;42.622;25.386;2023-06-14T07:50:31;97042.19;;;22.81;75.76
9439;BME280;5176;42.622;25.386;2023-06-14T07:52:58;97040.69;;;22.78;77.29
9439;BME280;5176;42.622;25.386;2023-06-14T07:55:26;97048.25;;;22.75;76.82
9439;BME280;5176;42.622;25.386;2023-06-14T07:57:55;97039.69;;;22.79;76.64
9439;BME280;5176;42.622;25.386;2023-06-14T08:00:22;97042.34;;;22.88;76.40
9439;BME280;5176;42.622;25.386;2023-06-14T08:02:50;97046.13;;;22.93;78.59
9439;BME280;5176;42.622;25.386;2023-06-14T08:05:17;97048.44;;;22.96;77.00
9439;BME280;5176;42.622;25.386;2023-06-14T08:07:45;97042.72;;;22.99;76.26
9439;BME280;5176;42.622;25.386;2023-06-14T08:10:12;97046.78;;;22.95;74.32
9439;BME280;5176;42.622;25.386;2023-06-14T08:12:39;97053.41;;;22.99;74.61
9439;BME280;5176;42.622;25.386;2023-06-14T08:15:09;97049.69;;;23.08;74.84
9439;BME280;5176;42.622;25.386;2023-06-14T08:17:36;97050.25;;;23.19;74.90
9439;BME280;5176;42.622;25.386;2023-06-14T08:20:04;97053.03;;;23.25;74.13
9439;BME280;5176;42.622;25.386;2023-06-14T08:22:32;97055.78;;;23.32;73.52
9439;BME280;5176;42.622;25.386;2023-06-14T08:24:59;97056.09;;;23.37;73.87
9439;BME280;5176;42.622;25.386;2023-06-14T08:27:27;97051.03;;;23.42;72.66
9439;BME280;5176;42.622;25.386;2023-06-14T08:29:54;97054.44;;;23.51;73.18
9439;BME280;5176;42.622;25.386;2023-06-14T08:32:23;97056.19;;;23.58;72.58
9439;BME280;5176;42.622;25.386;2023-06-14T08:34:51;97055.88;;;23.61;71.44
9439;BME280;5176;42.622;25.386;2023-06-14T08:37:18;97051.53;;;23.75;71.70
9439;BME280;5176;42.622;25.386;2023-06-14T08:39:46;97054.75;;;23.71;70.78
9439;BME280;5176;42.622;25.386;2023-06-14T08:42:14;97056.69;;;23.77;69.87
9439;BME280;5176;42.622;25.386;2023-06-14T08:44:42;97060.56;;;23.89;69.68
9439;BME280;5176;42.622;25.386;2023-06-14T08:47:10;97061.56;;;24.03;70.88
9439;BME280;5176;42.622;25.386;2023-06-14T08:49:41;97064.63;;;24.14;71.09
9439;BME280;5176;42.622;25.386;2023-06-14T08:52:10;97059.97;;;24.23;69.89
9439;BME280;5176;42.622;25.386;2023-06-14T08:54:41;97059.22;;;24.29;72.41
9439;BME280;5176;42.622;25.386;2023-06-14T08:57:11;97064.38;;;24.31;70.88
9439;BME280;5176;42.622;25.386;2023-06-14T08:59:46;97071.41;;;24.32;69.83
9439;BME280;5176;42.622;25.386;2023-06-14T09:02:15;97065.22;;;24.31;69.85
9439;BME280;5176;42.622;25.386;2023-06-14T09:04:45;97058.00;;;24.32;71.58
9439;BME280;5176;42.622;25.386;2023-06-14T09:07:12;97063.66;;;24.37;70.16
9439;BME280;5176;42.622;25.386;2023-06-14T09:09:39;97068.38;;;24.35;70.38
9439;BME280;5176;42.622;25.386;2023-06-14T09:12:08;97063.28;;;24.40;71.31
9439;BME280;5176;42.622;25.386;2023-06-14T09:14:38;97058.81;;;24.47;70.59
9439;BME280;5176;42.622;25.386;2023-06-14T09:17:07;97068.22;;;24.58;70.52
9439;BME280;5176;42.622;25.386;2023-06-14T09:19:34;97066.06;;;24.68;70.60
9439;BME280;5176;42.622;25.386;2023-06-14T09:22:05;97058.72;;;24.77;71.27
9439;BME280;5176;42.622;25.386;2023-06-14T09:24:32;97065.59;;;24.86;68.82
9439;BME280;5176;42.622;25.386;2023-06-14T09:26:59;97058.84;;;24.90;69.47
9439;BME280;5176;42.622;25.386;2023-06-14T09:29:26;97064.22;;;24.90;67.88
9439;BME280;5176;42.622;25.386;2023-06-14T09:31:54;97067.53;;;24.92;65.63
9439;BME280;5176;42.622;25.386;2023-06-14T09:34:21;97063.13;;;24.84;64.84
9439;BME280;5176;42.622;25.386;2023-06-14T09:36:50;97059.00;;;24.82;65.79
9439;BME280;5176;42.622;25.386;2023-06-14T09:39:19;97070.06;;;24.79;65.66
9439;BME280;5176;42.622;25.386;2023-06-14T09:41:47;97062.38;;;24.69;68.85
9439;BME280;5176;42.622;25.386;2023-06-14T09:44:14;97053.53;;;24.54;68.74
9439;BME280;5176;42.622;25.386;2023-06-14T09:46:43;97059.22;;;24.65;70.09
9439;BME280;5176;42.622;25.386;2023-06-14T09:49:11;97063.53;;;24.45;70.25
9439;BME280;5176;42.622;25.386;2023-06-14T09:51:43;97055.44;;;24.38;70.95
9439;BME280;5176;42.622;25.386;2023-06-14T09:54:15;97058.00;;;24.32;70.90
9439;BME280;5176;42.622;25.386;2023-06-14T09:56:45;97063.22;;;24.04;71.01
9439;BME280;5176;42.622;25.386;2023-06-14T09:59:16;97060.47;;;23.97;73.35
9439;BME280;5176;42.622;25.386;2023-06-14T10:01:47;97057.16;;;23.95;72.53
9439;BME280;5176;42.622;25.386;2023-06-14T10:04:15;97053.47;;;23.96;73.72
9439;BME280;5176;42.622;25.386;2023-06-14T10:06:45;97055.00;;;24.05;73.50
9439;BME280;5176;42.622;25.386;2023-06-14T10:09:13;97053.16;;;24.06;72.06
9439;BME280;5176;42.622;25.386;2023-06-14T10:11:41;97049.72;;;24.12;74.99
9439;BME280;5176;42.622;25.386;2023-06-14T10:14:12;97045.00;;;24.14;75.07
9439;BME280;5176;42.622;25.386;2023-06-14T10:16:45;97051.31;;;24.21;73.30
9439;BME280;5176;42.622;25.386;2023-06-14T10:19:18;97056.91;;;24.26;72.67
9439;BME280;5176;42.622;25.386;2023-06-14T10:21:54;97056.72;;;24.28;72.55
9439;BME280;5176;42.622;25.386;2023-06-14T10:24:28;97056.06;;;24.26;73.29
9439;BME280;5176;42.622;25.386;2023-06-14T10:26:57;97057.41;;;24.15;74.66
9439;BME280;5176;42.622;25.386;2023-06-14T10:29:26;97056.19;;;24.17;75.02
9439;BME280;5176;42.622;25.386;2023-06-14T10:31:58;97062.94;;;24.13;73.00
9439;BME280;5176;42.622;25.386;2023-06-14T10:34:27;97057.03;;;24.18;73.96
9439;BME280;5176;42.622;25.386;2023-06-14T10:37:02;97057.56;;;24.13;72.28
9439;BME280;5176;42.622;25.386;2023-06-14T10:39:30;97065.59;;;24.13;75.40
9439;BME280;5176;42.622;25.386;2023-06-14T10:41:58;97064.22;;;24.17;77.63
9439;BME280;5176;42.622;25.386;2023-06-14T10:44:41;97066.34;;;24.22;79.12
9439;BME280;5176;42.622;25.386;2023-06-14T10:47:13;97059.50;;;24.19;79.14
9439;BME280;5176;42.622;25.386;2023-06-14T10:49:51;97058.22;;;24.15;78.15
9439;BME280;5176;42.622;25.386;2023-06-14T10:52:22;97068.94;;;24.15;78.71
9439;BME280;5176;42.622;25.386;2023-06-14T10:54:59;97064.63;;;24.14;79.25
9439;BME280;5176;42.622;25.386;2023-06-14T10:57:27;97058.22;;;24.15;78.25
9439;BME280;5176;42.622;25.386;2023-06-14T10:59:57;97057.69;;;24.05;78.92
9439;BME280;5176;42.622;25.386;2023-06-14T11:02:51;97055.91;;;24.12;79.12
9439;BME280;5176;42.622;25.386;2023-06-14T11:05:24;97057.84;;;24.18;78.75
9439;BME280;5176;42.622;25.386;2023-06-14T11:08:03;97062.25;;;24.26;78.17
9439;BME280;5176;42.622;25.386;2023-06-14T11:10:37;97055.44;;;24.24;76.05
9439;BME280;5176;42.622;25.386;2023-06-14T11:13:06;97049.34;;;24.30;77.27
9439;BME280;5176;42.622;25.386;2023-06-14T11:15:37;97054.59;;;24.38;76.62
9439;BME280;5176;42.622;25.386;2023-06-14T11:18:06;97050.91;;;24.39;78.05
9439;BME280;5176;42.622;25.386;2023-06-14T11:20:35;97041.75;;;24.48;78.53
9439;BME280;5176;42.622;25.386;2023-06-14T11:23:04;97051.94;;;24.59;76.70
9439;BME280;5176;42.622;25.386;2023-06-14T11:25:31;97041.56;;;24.71;75.91
9439;BME280;5176;42.622;25.386;2023-06-14T11:27:58;97046.00;;;24.85;73.75
9439;BME280;5176;42.622;25.386;2023-06-14T11:30:26;97045.19;;;24.85;74.65
9439;BME280;5176;42.622;25.386;2023-06-14T11:32:55;97047.50;;;24.88;78.22
9439;BME280;5176;42.622;25.386;2023-06-14T11:35:23;97049.00;;;24.97;82.60
9439;BME280;5176;42.622;25.386;2023-06-14T11:37:53;97043.25;;;25.00;85.72
9439;BME280;5176;42.622;25.386;2023-06-14T11:40:23;97041.59;;;24.99;85.24
9439;BME280;5176;42.622;25.386;2023-06-14T11:42:58;97050.28;;;25.01;85.21
9439;BME280;5176;42.622;25.386;2023-06-14T11:45:27;97046.22;;;25.05;83.26
9439;BME280;5176;42.622;25.386;2023-06-14T11:47:57;97044.63;;;25.11;81.53
9439;BME280;5176;42.622;25.386;2023-06-14T11:50:25;97048.38;;;25.16;78.94
9439;BME280;5176;42.622;25.386;2023-06-14T11:52:53;97027.44;;;25.05;78.45
9439;BME280;5176;42.622;25.386;2023-06-14T11:55:21;97044.81;;;25.09;77.19
9439;BME280;5176;42.622;25.386;2023-06-14T11:57:49;97047.88;;;25.06;76.67
9439;BME280;5176;42.622;25.386;2023-06-14T12:00:17;97042.75;;;25.11;76.83
9439;BME280;5176;42.622;25.386;2023-06-14T12:02:52;97035.19;;;25.15;73.88
9439;BME280;5176;42.622;25.386;2023-06-14T12:05:26;97039.09;;;25.19;75.57
9439;BME280;5176;42.622;25.386;2023-06-14T12:07:58;97034.81;;;25.24;76.99
9439;BME280;5176;42.622;25.386;2023-06-14T12:10:27;97038.00;;;25.35;74.69
9439;BME280;5176;42.622;25.386;2023-06-14T12:12:57;97027.91;;;25.37;73.72
9439;BME280;5176;42.622;25.386;2023-06-14T12:15:27;97037.84;;;25.43;74.10
9439;BME280;5176;42.622;25.386;2023-06-14T12:17:55;97026.66;;;25.39;71.40
9439;BME280;5176;42.622;25.386;2023-06-14T12:20:29;97019.97;;;25.57;74.94
9439;BME280;5176;42.622;25.386;2023-06-14T12:22:59;97018.47;;;25.47;74.67
9439;BME280;5176;42.622;25.386;2023-06-14T12:25:30;97020.88;;;25.36;72.42
9439;BME280;5176;42.622;25.386;2023-06-14T12:27:59;97009.38;;;25.42;72.00
9439;BME280;5176;42.622;25.386;2023-06-14T12:30:30;97008.41;;;25.56;66.36
9439;BME280;5176;42.622;25.386;2023-06-14T12:32:57;97010.31;;;25.62;67.33
9439;BME280;5176;42.622;25.386;2023-06-14T12:35:26;97014.84;;;25.62;65.66
9439;BME280;5176;42.622;25.386;2023-06-14T12:37:53;97006.97;;;25.60;61.54
9439;BME280;5176;42.622;25.386;2023-06-14T12:40:20;97006.31;;;25.51;61.98
9439;BME280;5176;42.622;25.386;2023-06-14T12:42:48;96997.81;;;25.41;62.03
9439;BME280;5176;42.622;25.386;2023-06-14T12:45:15;96998.47;;;25.50;64.01
9439;BME280;5176;42.622;25.386;2023-06-14T12:47:42;96999.13;;;25.59;63.15
9439;BME280;5176;42.622;25.386;2023-06-14T12:50:10;96993.22;;;25.70;63.41
9439;BME280;5176;42.622;25.386;2023-06-14T12:52:38;96997.19;;;25.80;60.57
9439;BME280;5176;42.622;25.386;2023-06-14T12:55:06;96989.19;;;25.94;60.82
9439;BME280;5176;42.622;25.386;2023-06-14T12:57:33;96984.03;;;25.92;60.80
9439;BME280;5176;42.622;25.386;2023-06-14T13:00:03;96976.41;;;25.96;60.71
9439;BME280;5176;42.622;25.386;2023-06-14T13:02:32;96980.31;;;25.93;61.29
9439;BME280;5176;42.622;25.386;2023-06-14T13:05:00;96978.31;;;26.02;60.37
9439;BME280;5176;42.622;25.386;2023-06-14T13:07:29;96978.31;;;26.08;61.13
9439;BME280;5176;42.622;25.386;2023-06-14T13:09:58;96975.81;;;26.07;62.02
9439;BME280;5176;42.622;25.386;2023-06-14T13:12:25;96971.66;;;25.91;62.79